Time;durP1;ratioP1;P1;durP2;ratioP2;P2;SDS_P1;SDS_P2;PMS_P1;PMS_P2;Temp;Humidity;BMP_temperature;BMP_pressure;BME280_temperature;BME280_humidity;BME280_pressure;Samples;Min_cycle;Max_cycle;Signal;HPM_P1;HPM_P2
2020/12/27 00:00:16;;;;;;;4.88;2.10;;;29.10;41.50;;;;;;5093364;28;20056;-48
2020/12/27 00:02:43;;;;;;;4.57;2.60;;;29.10;41.50;;;;;;5094957;28;20020;-48
2020/12/27 00:05:10;;;;;;;4.70;2.55;;;29.10;41.60;;;;;;5094810;28;20051;-48
2020/12/27 00:07:37;;;;;;;5.15;2.42;;;29.00;41.60;;;;;;5087746;28;20103;-48
2020/12/27 00:10:05;;;;;;;4.78;2.30;;;29.00;41.60;;;;;;5073723;28;20071;-48
2020/12/27 00:12:32;;;;;;;6.10;2.72;;;29.00;41.60;;;;;;5074028;28;20024;-48
2020/12/27 00:14:59;;;;;;;9.57;2.75;;;29.00;42.30;;;;;;5074634;28;20495;-48
2020/12/27 00:17:25;;;;;;;4.65;2.22;;;29.00;41.70;;;;;;5074288;28;20056;-48
2020/12/27 00:19:52;;;;;;;5.60;2.45;;;28.90;41.60;;;;;;5074886;28;20360;-48
2020/12/27 00:22:21;;;;;;;5.55;2.30;;;28.90;41.60;;;;;;5080384;28;20035;-48
2020/12/27 00:24:48;;;;;;;4.47;2.30;;;28.90;41.60;;;;;;5094488;28;20035;-48
2020/12/27 00:27:15;;;;;;;5.13;2.78;;;28.90;41.60;;;;;;5082121;28;20356;-48
2020/12/27 00:29:42;;;;;;;4.07;2.00;;;28.90;42.10;;;;;;5094074;28;20031;-47
2020/12/27 00:32:09;;;;;;;4.30;2.10;;;28.80;41.80;;;;;;5082342;28;20032;-47
2020/12/27 00:34:37;;;;;;;8.23;2.50;;;28.80;41.80;;;;;;5075977;28;20031;-48
2020/12/27 00:37:04;;;;;;;5.95;2.50;;;28.80;41.80;;;;;;5087955;28;20111;-47
2020/12/27 00:39:30;;;;;;;9.43;2.42;;;28.80;41.80;;;;;;5073653;28;20468;-48
2020/12/27 00:42:01;;;;;;;7.57;2.40;;;28.80;41.70;;;;;;5073934;28;20031;-48
2020/12/27 00:44:28;;;;;;;7.80;2.50;;;28.80;41.70;;;;;;5090772;28;20043;-48
2020/12/27 00:46:55;;;;;;;5.88;2.50;;;28.80;41.70;;;;;;5094198;28;20093;-48
2020/12/27 00:49:22;;;;;;;5.85;2.20;;;28.70;41.70;;;;;;5094071;28;20107;-48
2020/12/27 00:51:51;;;;;;;7.15;2.30;;;28.80;41.80;;;;;;5094354;28;20490;-48
2020/12/27 00:54:17;;;;;;;9.50;2.22;;;28.70;41.80;;;;;;5092761;28;20060;-48
2020/12/27 00:56:50;;;;;;;5.43;2.03;;;28.70;41.90;;;;;;5094056;28;20520;-48
2020/12/27 00:59:17;;;;;;;5.47;2.13;;;28.70;41.90;;;;;;5075839;28;20500;-48
2020/12/27 01:01:44;;;;;;;4.18;2.00;;;28.70;42.00;;;;;;5072496;28;20046;-48
2020/12/27 01:04:10;;;;;;;5.65;2.53;;;28.70;42.00;;;;;;5073697;28;20103;-48
2020/12/27 01:06:38;;;;;;;9.65;2.70;;;28.70;41.90;;;;;;5081468;28;20024;-47
2020/12/27 01:09:05;;;;;;;5.93;2.38;;;28.70;42.00;;;;;;5077650;28;20043;-48
2020/12/27 01:11:32;;;;;;;5.18;2.35;;;28.70;42.00;;;;;;5076278;28;20029;-47
2020/12/27 01:13:58;;;;;;;6.45;2.38;;;28.70;42.10;;;;;;5093772;28;20379;-48
2020/12/27 01:16:25;;;;;;;7.10;2.45;;;28.70;42.10;;;;;;5093635;28;20422;-48
2020/12/27 01:18:52;;;;;;;5.00;2.10;;;28.70;42.80;;;;;;5093872;28;20031;-49
2020/12/27 01:21:31;;;;;;;5.35;2.10;;;28.70;42.20;;;;;;5095698;28;20024;-48
2020/12/27 01:23:58;;;;;;;6.05;2.15;;;28.70;42.10;;;;;;5097897;28;20056;-48
2020/12/27 01:26:32;;;;;;;5.30;2.40;;;28.70;42.10;;;;;;5097830;28;20379;-48
2020/12/27 01:28:59;;;;;;;3.80;1.85;;;28.80;42.10;;;;;;5097923;28;20047;-49
2020/12/27 01:31:26;;;;;;;3.72;1.83;;;28.80;42.20;;;;;;5097639;28;20024;-48
2020/12/27 01:33:53;;;;;;;6.25;2.08;;;28.80;42.10;;;;;;5097581;28;20073;-48
2020/12/27 01:36:32;;;;;;;4.68;1.98;;;28.80;42.20;;;;;;5097565;28;20447;-48
2020/12/27 01:39:05;;;;;;;6.35;2.30;;;28.80;42.10;;;;;;5097811;28;20032;-47
2020/12/27 01:41:32;;;;;;;3.92;1.98;;;28.80;42.10;;;;;;5084462;28;20029;-48
2020/12/27 01:44:06;;;;;;;3.40;1.80;;;28.80;42.10;;;;;;5097560;28;20024;-48
2020/12/27 01:46:34;;;;;;;4.80;2.22;;;28.80;42.10;;;;;;5087723;28;20044;-47
2020/12/27 01:49:01;;;;;;;4.63;1.83;;;28.80;42.10;;;;;;5077305;28;20033;-48
2020/12/27 01:51:27;;;;;;;4.15;2.00;;;28.80;42.10;;;;;;5081055;28;20063;-47
2020/12/27 01:53:54;;;;;;;10.18;2.70;;;28.70;42.10;;;;;;5101645;28;20088;-48
2020/12/27 01:56:28;;;;;;;5.25;2.20;;;28.70;42.10;;;;;;5104375;28;20024;-48
2020/12/27 01:59:02;;;;;;;6.25;1.90;;;28.70;42.10;;;;;;5095385;28;20060;-48
2020/12/27 02:01:30;;;;;;;4.53;1.83;;;28.60;42.10;;;;;;5097101;28;20028;-48
2020/12/27 02:03:57;;;;;;;5.20;1.85;;;28.60;42.20;;;;;;5096587;28;20024;-48
2020/12/27 02:06:23;;;;;;;5.50;2.20;;;28.60;42.20;;;;;;5097269;28;20034;-48
2020/12/27 02:08:50;;;;;;;6.30;1.98;;;28.50;42.20;;;;;;5095960;28;20081;-48
2020/12/27 02:11:20;;;;;;;4.95;1.90;;;28.50;42.20;;;;;;5096887;28;20036;-48
2020/12/27 02:13:58;;;;;;;4.05;1.90;;;28.50;42.20;;;;;;5097140;28;20493;-48
2020/12/27 02:16:27;;;;;;;3.03;1.67;;;28.50;42.20;;;;;;5097207;28;20055;-48
2020/12/27 02:19:02;;;;;;;2.95;1.58;;;28.40;42.20;;;;;;5091122;28;20031;-48
2020/12/27 02:21:30;;;;;;;4.28;1.60;;;28.40;42.30;;;;;;5076491;28;20112;-48
2020/12/27 02:24:00;;;;;;;5.20;2.05;;;28.30;42.30;;;;;;5076202;28;20025;-48
2020/12/27 02:26:27;;;;;;;6.88;1.83;;;28.30;42.30;;;;;;5077119;28;20033;-48
2020/12/27 02:28:57;;;;;;;3.67;1.52;;;28.30;42.40;;;;;;5075836;28;20491;-48
2020/12/27 02:31:25;;;;;;;5.63;1.92;;;28.20;42.40;;;;;;5075792;28;20043;-48
2020/12/27 02:33:52;;;;;;;4.68;1.60;;;28.10;42.40;;;;;;5076633;28;20460;-48
2020/12/27 02:36:18;;;;;;;4.35;1.80;;;28.10;42.50;;;;;;5076509;28;20020;-49
2020/12/27 02:38:45;;;;;;;4.75;1.88;;;28.10;42.60;;;;;;5076280;28;20052;-49
2020/12/27 02:41:22;;;;;;;3.08;1.73;;;28.10;42.60;;;;;;5092381;28;20028;-48
2020/12/27 02:43:49;;;;;;;5.03;1.80;;;28.00;42.50;;;;;;5097057;28;20038;-48
2020/12/27 02:46:27;;;;;;;4.80;1.60;;;28.00;42.60;;;;;;5085934;28;20028;-47
2020/12/27 02:48:54;;;;;;;3.47;1.65;;;28.00;42.70;;;;;;5087119;28;20016;-47
2020/12/27 02:51:21;;;;;;;3.78;1.50;;;28.00;42.60;;;;;;5096233;28;20028;-48
2020/12/27 02:53:51;;;;;;;4.20;1.73;;;28.00;42.60;;;;;;5096112;28;20403;-48
2020/12/27 02:56:19;;;;;;;2.85;1.50;;;28.00;42.60;;;;;;5096626;28;20107;-48
2020/12/27 02:58:47;;;;;;;3.85;1.60;;;28.10;42.70;;;;;;5095584;28;20024;-48
2020/12/27 03:01:14;;;;;;;4.03;1.60;;;28.10;42.70;;;;;;5083840;28;20107;-48
2020/12/27 03:03:41;;;;;;;2.28;1.23;;;28.10;42.60;;;;;;5075591;28;20456;-48
2020/12/27 03:06:07;;;;;;;2.72;1.38;;;28.20;42.70;;;;;;5075358;28;20423;-48
2020/12/27 03:08:34;;;;;;;2.92;1.60;;;28.20;42.60;;;;;;5088135;28;20059;-48
2020/12/27 03:11:01;;;;;;;2.75;1.70;;;28.30;42.60;;;;;;5095771;28;20037;-48
2020/12/27 03:13:32;;;;;;;3.25;1.60;;;28.30;42.50;;;;;;5096389;28;20027;-48
2020/12/27 03:16:04;;;;;;;4.78;1.30;;;28.30;42.50;;;;;;5096393;28;20135;-48
2020/12/27 03:18:30;;;;;;;;;;;28.40;42.40;;;;;;5096199;28;20090;-48
2020/12/27 03:20:57;;;;;;;1.98;1.17;;;28.40;42.80;;;;;;5095701;28;19904;-48
2020/12/27 03:23:24;;;;;;;2.60;1.42;;;28.40;42.30;;;;;;5081737;28;20384;-48
2020/12/27 03:25:51;;;;;;;2.92;1.48;;;28.50;42.30;;;;;;5075383;28;20435;-48
2020/12/27 03:28:18;;;;;;;3.35;1.50;;;28.50;42.20;;;;;;5076296;28;20032;-49
2020/12/27 03:30:44;;;;;;;2.65;1.20;;;28.60;42.20;;;;;;5075127;28;20115;-49
2020/12/27 03:33:11;;;;;;;4.50;1.60;;;28.60;42.10;;;;;;5075147;28;20081;-48
2020/12/27 03:35:38;;;;;;;3.67;1.20;;;28.60;42.00;;;;;;5075121;28;20496;-48
2020/12/27 03:38:04;;;;;;;2.33;1.38;;;28.60;42.10;;;;;;5074916;28;20067;-48
2020/12/27 03:40:31;;;;;;;4.28;1.38;;;28.60;42.00;;;;;;5074719;28;20448;-48
2020/12/27 03:42:59;;;;;;;3.33;1.25;;;28.60;41.90;;;;;;5090658;28;20038;-49
2020/12/27 03:45:26;;;;;;;8.65;1.50;;;28.60;41.60;;;;;;5094942;28;20028;-50
2020/12/27 03:47:54;;;;;;;8.55;2.00;;;28.60;41.30;;;;;;5094729;28;20020;-48
2020/12/27 03:50:23;;;;;;;5.45;1.80;;;28.60;41.40;;;;;;5095069;28;20062;-48
2020/12/27 03:52:49;;;;;;;3.40;1.40;;;28.50;41.20;;;;;;5094690;28;20391;-48
2020/12/27 03:55:16;;;;;;;4.35;1.48;;;28.50;41.30;;;;;;5094983;28;20111;-47
2020/12/27 03:57:43;;;;;;;2.38;1.10;;;28.40;41.20;;;;;;5077917;28;20379;-48
2020/12/27 04:00:11;;;;;;;3.63;1.50;;;28.30;41.30;;;;;;5074686;28;20044;-48
2020/12/27 04:02:37;;;;;;;4.18;1.70;;;28.30;41.30;;;;;;5074579;28;20041;-48
2020/12/27 04:05:04;;;;;;;3.85;1.65;;;28.20;41.40;;;;;;5074537;28;20020;-49
2020/12/27 04:07:32;;;;;;;3.08;1.30;;;28.10;41.50;;;;;;5074133;28;20102;-48
2020/12/27 04:10:00;;;;;;;5.03;1.70;;;28.00;41.50;;;;;;5088563;28;20546;-48
2020/12/27 04:12:27;;;;;;;3.30;1.40;;;28.00;41.70;;;;;;5094675;28;20093;-48
2020/12/27 04:14:53;;;;;;;7.53;1.30;;;27.90;41.70;;;;;;5094634;28;20020;-48
2020/12/27 04:17:20;;;;;;;3.70;1.33;;;27.80;41.70;;;;;;5094649;28;20031;-48
2020/12/27 04:19:46;;;;;;;3.47;1.20;;;27.70;41.80;;;;;;5078514;28;20030;-48
2020/12/27 04:22:13;;;;;;;4.97;1.38;;;27.70;41.80;;;;;;5073965;28;20025;-48
2020/12/27 04:24:40;;;;;;;3.53;1.27;;;27.70;42.00;;;;;;5074425;28;20021;-47
2020/12/27 04:27:08;;;;;;;4.28;1.40;;;27.70;42.00;;;;;;5074145;28;20048;-48
2020/12/27 04:29:34;;;;;;;3.10;1.10;;;27.60;42.00;;;;;;5073712;28;20451;-48
2020/12/27 04:32:01;;;;;;;2.85;1.20;;;27.60;42.00;;;;;;5074440;28;20035;-48
2020/12/27 04:34:28;;;;;;;4.32;1.30;;;27.60;42.20;;;;;;5089059;28;20032;-48
2020/12/27 04:36:54;;;;;;;6.32;1.20;;;27.60;42.20;;;;;;5094309;28;20498;-48
2020/12/27 04:39:21;;;;;;;3.17;1.10;;;27.60;42.30;;;;;;5093982;28;20558;-48
2020/12/27 04:41:47;;;;;;;3.67;1.27;;;27.60;42.30;;;;;;5094331;28;20032;-48
2020/12/27 04:44:15;;;;;;;2.72;0.90;;;27.60;42.30;;;;;;5094094;28;20093;-48
2020/12/27 04:46:42;;;;;;;3.58;1.10;;;27.70;42.30;;;;;;5094155;28;20161;-47
2020/12/27 04:49:09;;;;;;;4.75;1.10;;;27.70;42.30;;;;;;5092181;28;20031;-47
2020/12/27 04:51:36;;;;;;;3.47;1.10;;;27.70;42.10;;;;;;5094068;28;20115;-47
2020/12/27 04:54:04;;;;;;;2.25;1.05;;;27.80;42.20;;;;;;5075436;28;20040;-48
2020/12/27 04:56:30;;;;;;;2.50;1.08;;;27.80;42.10;;;;;;5073621;28;20028;-47
2020/12/27 04:58:57;;;;;;;2.47;1.00;;;27.80;42.00;;;;;;5073733;28;20033;-48
2020/12/27 05:01:24;;;;;;;2.58;1.00;;;27.90;42.00;;;;;;5073886;28;20027;-49
2020/12/27 05:03:53;;;;;;;4.38;0.95;;;27.90;42.00;;;;;;5088064;28;20032;-48
2020/12/27 05:06:20;;;;;;;3.47;1.08;;;28.00;42.00;;;;;;5093982;28;20074;-49
2020/12/27 05:08:47;;;;;;;1.75;0.90;;;28.00;41.90;;;;;;5093826;28;20055;-49
2020/12/27 05:11:18;;;;;;;2.38;1.00;;;28.00;41.90;;;;;;5093657;28;20024;-49
2020/12/27 05:13:47;;;;;;;2.30;1.00;;;28.00;41.80;;;;;;5093642;28;20472;-48
2020/12/27 05:16:17;;;;;;;2.30;1.10;;;28.00;41.80;;;;;;5093874;28;20418;-49
2020/12/27 05:18:49;;;;;;;2.60;1.17;;;28.00;41.80;;;;;;5093488;28;20028;-48
2020/12/27 05:21:22;;;;;;;4.72;1.10;;;28.00;41.80;;;;;;5093889;28;20027;-48
2020/12/27 05:23:51;;;;;;;4.38;1.15;;;27.90;41.70;;;;;;5080158;28;20025;-48
2020/12/27 05:26:19;;;;;;;2.83;0.80;;;28.00;41.80;;;;;;5093771;28;20411;-48
2020/12/27 05:28:46;;;;;;;3.95;0.80;;;27.90;41.80;;;;;;5093126;28;20024;-49
2020/12/27 05:31:14;;;;;;;3.55;0.95;;;27.90;41.80;;;;;;5093760;28;20032;-48
2020/12/27 05:33:41;;;;;;;1.55;0.85;;;27.90;41.80;;;;;;5093645;28;20031;-48
2020/12/27 05:36:11;;;;;;;3.53;0.80;;;27.90;41.80;;;;;;5093730;28;20101;-48
2020/12/27 05:38:38;;;;;;;1.88;0.70;;;27.90;41.70;;;;;;5093683;28;20120;-48
2020/12/27 05:41:05;;;;;;;3.38;0.93;;;27.80;41.70;;;;;;5094378;28;20028;-48
2020/12/27 05:43:36;;;;;;;1.45;0.70;;;27.80;41.70;;;;;;5083654;28;20529;-48
2020/12/27 05:46:03;;;;;;;1.73;0.88;;;27.80;41.80;;;;;;5093975;28;20024;-48
2020/12/27 05:48:30;;;;;;;1.27;0.70;;;27.70;41.70;;;;;;5093490;28;20024;-48
2020/12/27 05:51:03;;;;;;;1.13;0.60;;;27.70;41.80;;;;;;5093485;28;20158;-49
2020/12/27 05:53:32;;;;;;;1.88;0.80;;;27.70;41.80;;;;;;5077211;28;20116;-49
2020/12/27 05:56:00;;;;;;;0.73;0.60;;;27.70;41.80;;;;;;5072267;28;20033;-49
2020/12/27 05:58:27;;;;;;;0.70;0.68;;;27.60;41.70;;;;;;5075679;28;20028;-48
2020/12/27 06:00:58;;;;;;;2.28;0.80;;;27.60;41.80;;;;;;5073469;28;20049;-48
2020/12/27 06:03:28;;;;;;;3.10;0.90;;;27.60;41.80;;;;;;5073491;28;20025;-48
2020/12/27 06:05:58;;;;;;;1.35;0.80;;;27.60;41.90;;;;;;5073266;28;20388;-49
2020/12/27 06:08:33;;;;;;;2.70;0.77;;;27.50;41.90;;;;;;5076968;28;20024;-48
2020/12/27 06:11:16;;;;;;;2.55;0.70;;;27.50;41.80;;;;;;5076562;28;20029;-48
2020/12/27 06:14:09;;;;;;;0.93;0.60;;;27.50;41.90;;;;;;5085140;28;20388;-48
2020/12/27 06:16:55;;;;;;;1.77;0.77;;;27.40;41.90;;;;;;5097707;28;20451;-48
2020/12/27 06:19:24;;;;;;;1.85;0.60;;;27.40;42.00;;;;;;5096960;28;20056;-48
2020/12/27 06:22:07;;;;;;;5.65;0.88;;;27.40;42.00;;;;;;5088814;28;20445;-49
2020/12/27 06:24:36;;;;;;;2.08;0.60;;;27.30;42.00;;;;;;5076773;28;20107;-49
2020/12/27 06:27:04;;;;;;;0.90;0.63;;;27.30;42.00;;;;;;5076970;28;20028;-49
2020/12/27 06:29:33;;;;;;;1.30;0.73;;;27.20;41.90;;;;;;5085479;28;20032;-49
2020/12/27 06:32:04;;;;;;;1.15;0.65;;;27.20;42.00;;;;;;5094670;28;20119;-49
2020/12/27 06:34:31;;;;;;;3.75;0.73;;;27.20;42.10;;;;;;5096727;28;20020;-48
2020/12/27 06:36:59;;;;;;;0.90;0.63;;;27.10;42.10;;;;;;5096687;28;20123;-48
2020/12/27 06:39:27;;;;;;;0.55;0.50;;;27.10;42.10;;;;;;5096380;28;20412;-48
2020/12/27 06:42:16;;;;;;;1.15;0.68;;;27.00;42.10;;;;;;5096172;28;20420;-48
2020/12/27 06:44:46;;;;;;;1.05;0.70;;;27.00;42.20;;;;;;5094518;28;20032;-49
2020/12/27 06:47:15;;;;;;;1.95;0.70;;;26.90;42.20;;;;;;5094247;28;20480;-48
2020/12/27 06:49:42;;;;;;;6.97;0.80;;;26.80;42.20;;;;;;5094880;28;20115;-49
2020/12/27 06:52:25;;;;;;;2.38;0.90;;;26.80;42.10;;;;;;5096535;28;20028;-48
2020/12/27 06:54:55;;;;;;;4.85;0.75;;;26.80;42.10;;;;;;5091203;28;20488;-48
2020/12/27 20:16:01;;;;;;;25.80;15.67;;;13.50;63.80;;;;;;5084535;27;1912401;-45
2020/12/27 20:18:31;;;;;;;26.20;15.02;;;14.00;62.70;;;;;;5131997;28;20027;-45
2020/12/27 20:20:58;;;;;;;23.15;14.38;;;14.10;62.20;;;;;;5131844;28;20098;-45
2020/12/27 20:23:25;;;;;;;25.67;14.93;;;14.30;61.90;;;;;;5121806;28;20031;-45
2020/12/27 20:25:52;;;;;;;23.50;14.52;;;14.50;61.50;;;;;;5111324;28;20110;-45
2020/12/27 20:28:19;;;;;;;22.55;13.52;;;14.70;61.10;;;;;;5110918;28;20030;-46
2020/12/27 20:30:45;;;;;;;24.83;13.60;;;14.80;60.70;;;;;;5111259;28;20031;-45
2020/12/27 20:33:12;;;;;;;22.63;12.68;;;15.00;60.40;;;;;;5106101;28;20065;-46
2020/12/27 20:35:39;;;;;;;23.20;12.60;;;15.20;60.10;;;;;;5114426;28;20027;-45
2020/12/27 20:38:05;;;;;;;23.35;13.18;;;15.30;59.80;;;;;;5111320;28;20141;-45
2020/12/27 20:40:32;;;;;;;19.77;12.38;;;15.40;59.30;;;;;;5105290;28;20043;-46
2020/12/27 20:42:59;;;;;;;16.48;12.35;;;15.60;59.00;;;;;;5110897;28;20074;-46
2020/12/27 20:45:25;;;;;;;17.92;12.00;;;15.70;58.50;;;;;;5110844;28;20043;-45
2020/12/27 20:47:52;;;;;;;18.77;12.18;;;15.90;58.30;;;;;;5111125;28;20411;-46
2020/12/27 20:50:18;;;;;;;18.58;13.02;;;16.00;58.10;;;;;;5110815;28;20046;-46
2020/12/27 20:52:45;;;;;;;21.35;11.55;;;16.10;57.70;;;;;;5110780;28;20027;-45
2020/12/27 20:55:11;;;;;;;20.92;11.82;;;16.30;58.10;;;;;;5110677;28;20129;-45
2020/12/27 20:57:38;;;;;;;19.88;12.38;;;16.40;57.10;;;;;;5110810;28;20066;-46
2020/12/27 21:00:06;;;;;;;18.25;10.90;;;16.50;56.80;;;;;;5110989;28;20030;-46
2020/12/27 21:02:32;;;;;;;14.70;9.93;;;16.60;56.60;;;;;;5110659;28;20055;-45
2020/12/27 21:04:59;;;;;;;18.48;10.77;;;16.70;56.40;;;;;;5115494;28;20039;-45
2020/12/27 21:07:25;;;;;;;17.08;10.52;;;16.90;56.20;;;;;;5116545;28;20468;-45
2020/12/27 21:09:52;;;;;;;14.48;9.32;;;17.00;56.00;;;;;;5116601;28;20035;-45
2020/12/27 21:12:18;;;;;;;14.80;8.98;;;17.20;55.80;;;;;;5110027;28;20491;-46
2020/12/27 21:14:46;;;;;;;14.40;9.52;;;17.30;55.60;;;;;;5108514;28;20047;-45
2020/12/27 21:17:12;;;;;;;16.23;9.73;;;17.50;55.30;;;;;;5096031;28;20027;-44
2020/12/27 21:19:39;;;;;;;19.27;9.32;;;17.70;55.10;;;;;;5096788;28;20025;-44
2020/12/27 21:22:08;;;;;;;19.98;9.75;;;17.80;54.90;;;;;;5096598;28;20035;-44
2020/12/27 21:24:34;;;;;;;15.75;9.02;;;18.10;54.60;;;;;;5096356;28;20039;-45
2020/12/27 21:27:01;;;;;;;14.45;8.70;;;18.30;54.20;;;;;;5096028;28;20162;-44
2020/12/27 21:29:27;;;;;;;13.70;8.63;;;18.40;54.00;;;;;;5096188;28;20248;-45
2020/12/27 21:31:55;;;;;;;12.15;8.30;;;18.60;53.60;;;;;;5096199;28;20397;-46
2020/12/27 21:34:22;;;;;;;18.58;8.07;;;18.80;53.20;;;;;;5098251;28;20028;-45
2020/12/27 21:36:50;;;;;;;14.25;7.47;;;19.00;52.80;;;;;;5116771;28;20103;-45
2020/12/27 21:39:17;;;;;;;12.40;7.70;;;19.10;52.40;;;;;;5114809;28;20372;-45
2020/12/27 21:41:49;;;;;;;14.43;8.38;;;19.30;52.00;;;;;;5117026;28;20491;-45
2020/12/27 21:44:16;;;;;;;16.85;7.93;;;19.50;51.70;;;;;;5116606;28;20076;-45
2020/12/27 21:46:42;;;;;;;14.63;6.53;;;19.60;51.40;;;;;;5116460;28;20059;-45
2020/12/27 21:49:09;;;;;;;13.18;7.15;;;19.80;51.10;;;;;;5112931;28;20107;-45
2020/12/27 21:51:35;;;;;;;13.15;6.85;;;19.90;50.80;;;;;;5116694;28;20067;-45
2020/12/27 21:54:02;;;;;;;10.35;6.63;;;20.10;50.50;;;;;;5116117;28;20039;-45
2020/12/27 21:56:28;;;;;;;11.13;6.43;;;20.20;50.10;;;;;;5116973;28;20031;-45
2020/12/27 21:58:56;;;;;;;9.45;6.35;;;20.30;50.00;;;;;;5116405;28;20073;-45
2020/12/27 22:01:22;;;;;;;11.90;6.30;;;20.50;49.70;;;;;;5108480;28;20020;-46
2020/12/27 22:03:49;;;;;;;12.95;6.40;;;20.60;49.50;;;;;;5095400;28;20068;-46
2020/12/27 22:06:17;;;;;;;13.20;7.05;;;20.70;49.30;;;;;;5095870;28;20468;-45
2020/12/27 22:08:43;;;;;;;12.45;5.90;;;20.80;49.00;;;;;;5095804;28;20031;-45
2020/12/27 22:11:11;;;;;;;10.35;5.88;;;20.90;48.70;;;;;;5095774;28;20024;-45
2020/12/27 22:13:38;;;;;;;9.50;5.78;;;20.90;48.60;;;;;;5113076;28;20123;-45
2020/12/27 22:16:04;;;;;;;11.13;5.35;;;21.00;48.30;;;;;;5114360;28;20040;-45
2020/12/27 22:18:31;;;;;;;14.90;6.00;;;21.10;48.20;;;;;;5115871;28;20023;-46
2020/12/27 22:20:57;;;;;;;7.18;4.80;;;21.10;48.10;;;;;;5116232;28;20080;-45
2020/12/27 22:23:24;;;;;;;11.15;6.07;;;21.20;47.90;;;;;;5115501;28;20384;-46
2020/12/27 22:25:50;;;;;;;13.15;5.55;;;21.20;47.80;;;;;;5104946;28;20028;-45
2020/12/27 22:28:17;;;;;;;13.75;5.60;;;21.30;47.70;;;;;;5093852;28;20479;-45
2020/12/27 22:30:43;;;;;;;9.35;5.15;;;21.30;47.60;;;;;;5095087;28;20099;-46
2020/12/27 22:33:10;;;;;;;8.48;4.55;;;21.30;47.50;;;;;;5095330;28;20020;-46
2020/12/27 22:35:36;;;;;;;17.65;5.45;;;21.40;47.50;;;;;;5095271;28;20476;-45
2020/12/27 22:38:03;;;;;;;11.88;4.78;;;21.50;47.40;;;;;;5095240;28;20048;-46
2020/12/27 22:40:29;;;;;;;10.50;4.85;;;21.50;47.40;;;;;;5094932;28;20126;-46
2020/12/27 22:42:56;;;;;;;8.82;4.80;;;21.50;47.20;;;;;;5095119;28;20096;-46
2020/12/27 22:45:22;;;;;;;8.90;4.30;;;21.60;47.10;;;;;;5095029;28;20032;-45
2020/12/27 22:47:51;;;;;;;12.75;4.22;;;21.60;47.10;;;;;;5095097;28;20020;-49
2020/12/27 22:50:18;;;;;;;8.02;4.47;;;21.60;47.10;;;;;;5094739;28;20424;-46
2020/12/27 22:52:44;;;;;;;11.77;4.82;;;21.70;47.00;;;;;;5095504;28;20020;-47
2020/12/27 22:55:11;;;;;;;19.42;4.72;;;21.70;47.00;;;;;;5098699;28;20359;-47
2020/12/27 22:57:37;;;;;;;9.00;4.40;;;21.70;47.50;;;;;;5094742;28;20024;-47
2020/12/27 23:00:07;;;;;;;9.98;4.30;;;21.80;48.00;;;;;;5094360;28;20024;-48
2020/12/27 23:02:34;;;;;;;9.80;4.35;;;21.70;48.30;;;;;;5094392;28;20400;-47
2020/12/27 23:05:00;;;;;;;7.95;4.20;;;21.80;48.60;;;;;;5094529;28;20033;-47
2020/12/27 23:07:27;;;;;;;14.65;4.35;;;21.80;48.80;;;;;;5095121;28;20024;-46
2020/12/27 23:09:53;;;;;;;9.45;4.47;;;21.80;49.10;;;;;;5094611;28;20047;-47
2020/12/27 23:12:20;;;;;;;8.90;4.25;;;21.70;49.20;;;;;;5094935;28;20224;-47
2020/12/27 23:14:48;;;;;;;11.27;3.88;;;21.80;49.40;;;;;;5094092;28;20044;-47
2020/12/27 23:17:14;;;;;;;9.95;3.90;;;21.70;49.50;;;;;;5094676;28;20036;-47
2020/12/27 23:19:41;;;;;;;8.27;4.07;;;21.70;49.60;;;;;;5105129;28;20163;-47
2020/12/27 23:22:08;;;;;;;10.88;4.63;;;21.80;49.70;;;;;;5114764;28;20476;-47
2020/12/27 23:24:34;;;;;;;9.95;3.72;;;21.70;49.80;;;;;;5114577;28;20042;-47
2020/12/27 23:27:03;;;;;;;11.07;3.75;;;21.70;49.90;;;;;;5104810;28;20020;-46
2020/12/27 23:29:29;;;;;;;9.80;4.07;;;21.70;50.00;;;;;;5094453;28;20032;-46
2020/12/27 23:31:56;;;;;;;7.03;3.40;;;21.70;50.00;;;;;;5093937;28;20378;-47
2020/12/27 23:34:22;;;;;;;9.57;3.58;;;21.70;50.00;;;;;;5094053;28;20039;-47
2020/12/27 23:36:49;;;;;;;10.00;3.28;;;21.70;50.10;;;;;;5094829;28;20023;-47
2020/12/27 23:39:16;;;;;;;8.10;3.50;;;21.70;50.20;;;;;;5103743;28;20028;-47
2020/12/27 23:41:46;;;;;;;11.95;3.80;;;21.70;50.20;;;;;;5093988;28;20469;-48
2020/12/27 23:44:13;;;;;;;9.10;3.47;;;21.60;50.30;;;;;;5094467;28;20038;-46
2020/12/27 23:46:40;;;;;;;5.68;3.53;;;21.60;50.40;;;;;;5094112;28;20031;-46
2020/12/27 23:49:12;;;;;;;8.85;3.67;;;21.60;50.50;;;;;;5093816;28;20031;-46
2020/12/27 23:51:44;;;;;;;9.52;3.30;;;21.60;50.60;;;;;;5093792;28;20376;-46
2020/12/27 23:54:11;;;;;;;6.55;3.20;;;21.60;50.70;;;;;;5094792;28;20036;-46
2020/12/27 23:56:40;;;;;;;7.60;3.13;;;21.60;50.70;;;;;;5079155;28;20489;-46
2020/12/27 23:59:09;;;;;;;8.18;3.45;;;21.60;50.80;;;;;;5094811;28;20028;-46
